createdAt,value
2018-05-24T00:01:23.258Z,48.52
2018-05-24T00:03:56.900Z,48.55
2018-05-24T00:06:30.617Z,48.70
2018-05-24T00:09:05.117Z,48.34
2018-05-24T00:11:38.686Z,48.22
2018-05-24T00:14:12.345Z,48.70
2018-05-24T00:16:45.954Z,48.22
2018-05-24T00:19:19.721Z,48.52
2018-05-24T00:21:53.622Z,48.79
2018-05-24T00:24:27.360Z,48.61
2018-05-24T00:27:00.977Z,48.43
2018-05-24T00:29:34.778Z,48.81
2018-05-24T00:32:08.381Z,48.84
2018-05-24T00:34:42.057Z,48.42
2018-05-24T00:37:15.731Z,48.47
2018-05-24T00:39:49.418Z,48.28
2018-05-24T00:42:23.248Z,48.30
2018-05-24T00:44:57.005Z,47.88
2018-05-24T00:47:30.570Z,47.86
2018-05-24T00:50:04.217Z,47.77
2018-05-24T00:52:37.941Z,47.55
2018-05-24T00:55:23.369Z,47.89
2018-05-24T00:57:57.052Z,48.14
2018-05-24T01:00:30.608Z,48.33
2018-05-24T01:03:04.374Z,47.85
2018-05-24T01:05:37.957Z,47.82
2018-05-24T01:08:11.732Z,47.98
2018-05-24T01:10:45.460Z,48.59
2018-05-24T01:13:19.208Z,48.39
2018-05-24T01:15:52.956Z,48.48
2018-05-24T01:18:26.550Z,48.19
2018-05-24T01:21:00.214Z,47.41
2018-05-24T01:23:34.035Z,47.88
2018-05-24T01:26:07.721Z,48.20
2018-05-24T01:28:41.596Z,48.61
2018-05-24T01:31:15.237Z,48.67
2018-05-24T01:33:48.894Z,49.16
2018-05-24T01:36:22.667Z,49.04
2018-05-24T01:38:56.247Z,49.07
2018-05-24T01:41:29.943Z,49.53
2018-05-24T01:44:03.694Z,49.36
2018-05-24T01:46:37.479Z,49.49
2018-05-24T01:49:11.277Z,49.50
2018-05-24T01:51:44.857Z,49.71
2018-05-24T01:54:18.491Z,49.83
2018-05-24T01:56:52.241Z,49.80
2018-05-24T01:59:25.963Z,50.05
2018-05-24T02:01:59.521Z,50.03
2018-05-24T02:04:33.167Z,49.76
2018-05-24T02:07:06.759Z,49.89
2018-05-24T02:09:40.560Z,50.20
2018-05-24T02:12:14.304Z,50.33
2018-05-24T02:14:48.037Z,49.93
2018-05-24T02:17:21.772Z,49.90
2018-05-24T02:19:55.349Z,49.67
2018-05-24T02:22:29.012Z,49.87
2018-05-24T02:25:02.638Z,49.83
2018-05-24T02:27:36.228Z,49.87
2018-05-24T02:30:09.945Z,49.94
2018-05-24T02:32:43.639Z,49.75
2018-05-24T02:35:17.217Z,49.71
2018-05-24T02:37:50.931Z,49.91
2018-05-24T02:40:24.632Z,49.84
2018-05-24T02:42:58.849Z,49.65
2018-05-24T02:45:32.533Z,50.02
2018-05-24T02:48:06.280Z,49.95
2018-05-24T02:50:39.905Z,49.99
2018-05-24T02:53:13.693Z,50.43
2018-05-24T02:55:47.384Z,50.49
2018-05-24T02:58:21.235Z,50.95
2018-05-24T03:00:54.969Z,50.66
2018-05-24T03:03:28.768Z,51.09
2018-05-24T03:06:02.557Z,50.68
2018-05-24T03:08:36.420Z,51.56
2018-05-24T03:11:10.113Z,51.28
2018-05-24T03:13:43.841Z,51.58
2018-05-24T03:16:17.470Z,51.99
2018-05-24T03:18:51.299Z,52.24
2018-05-24T03:21:24.987Z,52.47
2018-05-24T03:23:58.695Z,52.41
2018-05-24T03:26:32.404Z,52.92
2018-05-24T03:29:06.061Z,53.13
2018-05-24T03:31:39.875Z,53.25
2018-05-24T03:34:13.521Z,53.35
2018-05-24T03:36:47.340Z,53.74
2018-05-24T03:39:21.080Z,54.14
2018-05-24T03:41:54.818Z,54.40
2018-05-24T03:44:28.523Z,54.95
2018-05-24T03:47:02.329Z,55.22
2018-05-24T03:49:36.018Z,55.36
2018-05-24T03:52:09.676Z,55.34
2018-05-24T03:54:43.413Z,56.21
2018-05-24T03:57:16.985Z,56.23
2018-05-24T04:00:11.514Z,56.62
2018-05-24T04:02:57.143Z,56.52
2018-05-24T04:05:30.850Z,56.35
2018-05-24T04:08:04.409Z,56.70
2018-05-24T04:10:37.949Z,56.99
2018-05-24T04:13:11.660Z,57.50
2018-05-24T04:15:45.291Z,61.90
2018-05-24T04:18:18.955Z,68.79
2018-05-24T04:20:52.649Z,70.73
2018-05-24T04:23:26.335Z,75.34
2018-05-24T04:26:00.057Z,77.10
2018-05-24T04:28:33.751Z,76.55
2018-05-24T04:31:07.443Z,74.88
2018-05-24T04:33:41.191Z,79.73
2018-05-24T04:36:14.946Z,81.90
2018-05-24T04:38:48.649Z,81.31
2018-05-24T04:41:22.238Z,81.70
2018-05-24T04:43:55.818Z,83.29
2018-05-24T04:46:29.457Z,82.47
2018-05-24T04:49:03.049Z,81.29
2018-05-24T04:51:36.768Z,79.63
2018-05-24T04:54:10.449Z,79.51
2018-05-24T04:56:44.069Z,80.91
2018-05-24T04:59:17.675Z,82.04
2018-05-24T05:01:51.421Z,82.63
2018-05-24T05:04:25.079Z,81.83
2018-05-24T05:07:22.574Z,82.81
2018-05-24T05:09:56.161Z,81.33
2018-05-24T05:12:29.945Z,82.65
2018-05-24T05:15:03.653Z,82.38
2018-05-24T05:17:37.510Z,82.95
2018-05-24T05:20:11.024Z,84.10
2018-05-24T05:22:44.765Z,83.73
2018-05-24T05:25:18.477Z,83.13
2018-05-24T05:27:52.052Z,83.40
2018-05-24T05:30:25.785Z,83.95
2018-05-24T05:32:59.580Z,83.93
2018-05-24T05:35:33.162Z,84.67
2018-05-24T05:38:06.858Z,84.41
2018-05-24T05:40:40.417Z,83.86
2018-05-24T05:43:14.130Z,83.12
2018-05-24T05:45:47.912Z,81.03
2018-05-24T05:48:21.584Z,81.93
2018-05-24T05:50:55.261Z,80.36
2018-05-24T05:53:29.091Z,81.42
2018-05-24T05:56:02.647Z,81.13
2018-05-24T05:58:36.358Z,81.33
2018-05-24T06:01:10.002Z,79.69
2018-05-24T06:03:43.593Z,81.04
2018-05-24T06:06:17.357Z,79.99
2018-05-24T06:08:51.115Z,80.60
2018-05-24T06:11:24.713Z,80.15
2018-05-24T06:13:58.578Z,80.11
2018-05-24T06:16:45.168Z,80.58
2018-05-24T06:19:18.808Z,79.23
2018-05-24T06:21:52.545Z,79.68
2018-05-24T06:24:26.135Z,79.13
2018-05-24T06:26:59.668Z,79.50
2018-05-24T06:29:33.352Z,78.85
2018-05-24T06:32:07.154Z,78.86
2018-05-24T06:34:40.986Z,78.90
2018-05-24T06:37:14.803Z,78.23
2018-05-24T06:39:48.360Z,79.00
2018-05-24T06:42:21.951Z,78.65
2018-05-24T06:44:55.686Z,79.15
2018-05-24T06:47:29.454Z,78.41
2018-05-24T06:50:03.181Z,78.75
2018-05-24T06:52:36.909Z,79.17
2018-05-24T06:55:10.673Z,77.75
2018-05-24T06:57:44.437Z,76.86
2018-05-24T07:00:18.134Z,76.94
2018-05-24T07:02:51.761Z,77.27
2018-05-24T07:05:25.617Z,76.78
2018-05-24T07:07:59.333Z,76.27
2018-05-24T07:10:33.080Z,75.97
2018-05-24T07:13:06.665Z,75.51
2018-05-24T07:15:40.559Z,75.01
2018-05-24T07:18:14.312Z,75.06
2018-05-24T07:20:48.055Z,75.38
2018-05-24T07:23:21.641Z,75.62
2018-05-24T07:25:55.242Z,74.20
2018-05-24T07:28:28.867Z,75.13
2018-05-24T07:31:02.556Z,75.06
2018-05-24T07:33:36.271Z,74.01
2018-05-24T07:36:09.843Z,73.97
2018-05-24T07:38:43.606Z,73.90
2018-05-24T07:41:17.286Z,73.11
2018-05-24T07:43:50.921Z,73.22
2018-05-24T07:46:24.676Z,72.43
2018-05-24T07:48:58.513Z,71.72
2018-05-24T07:51:32.082Z,72.77
2018-05-24T07:54:05.759Z,72.84
2018-05-24T07:56:39.448Z,74.35
2018-05-24T07:59:13.235Z,74.38
2018-05-24T08:01:46.927Z,74.30
2018-05-24T08:04:20.640Z,75.04
2018-05-24T08:06:54.401Z,74.57
2018-05-24T08:09:27.934Z,74.89
2018-05-24T08:12:01.594Z,73.61
2018-05-24T08:14:35.208Z,72.91
2018-05-24T08:17:08.882Z,71.41
2018-05-24T08:19:42.580Z,70.49
2018-05-24T08:22:16.185Z,67.33
2018-05-24T08:24:49.953Z,64.99
2018-05-24T08:27:23.623Z,66.14
2018-05-24T08:29:57.252Z,63.63
2018-05-24T08:32:30.973Z,66.07
2018-05-24T08:35:04.637Z,66.49
2018-05-24T08:37:38.332Z,61.86
2018-05-24T08:40:12.037Z,61.75
2018-05-24T08:42:45.792Z,64.99
2018-05-24T08:45:19.480Z,65.55
2018-05-24T08:47:53.054Z,65.74
2018-05-24T08:50:26.784Z,66.13
2018-05-24T08:53:00.547Z,68.57
2018-05-24T08:55:34.412Z,68.37
2018-05-24T08:58:08.181Z,70.09
2018-05-24T09:00:41.845Z,69.59
2018-05-24T09:03:15.512Z,69.23
2018-05-24T09:05:49.205Z,70.14
2018-05-24T09:08:23.009Z,70.11
2018-05-24T09:10:56.789Z,68.66
2018-05-24T09:13:30.505Z,68.94
2018-05-24T09:16:04.252Z,68.36
2018-05-24T09:18:38.115Z,69.75
2018-05-24T09:21:11.850Z,70.15
2018-05-24T09:23:45.565Z,71.18
2018-05-24T09:26:19.389Z,71.13
2018-05-24T09:28:53.201Z,71.06
2018-05-24T09:31:26.867Z,71.99
2018-05-24T09:34:00.496Z,71.91
2018-05-24T09:36:34.078Z,72.12
2018-05-24T09:39:07.950Z,69.58
2018-05-24T09:41:41.691Z,68.54
2018-05-24T09:44:15.297Z,68.36
2018-05-24T09:46:48.983Z,68.98
2018-05-24T09:49:22.581Z,67.65
2018-05-24T09:51:56.221Z,67.01
2018-05-24T09:54:29.870Z,66.38
2018-05-24T09:57:03.463Z,66.15
2018-05-24T09:59:37.016Z,63.99
2018-05-24T10:02:10.548Z,60.81
2018-05-24T10:04:44.440Z,59.96
2018-05-24T10:07:18.006Z,59.08
2018-05-24T10:09:51.805Z,59.73
2018-05-24T10:12:25.484Z,63.17
2018-05-24T10:14:59.117Z,60.14
2018-05-24T10:17:32.642Z,61.54
2018-05-24T10:20:06.147Z,62.26
2018-05-24T10:22:39.682Z,61.71
2018-05-24T10:25:13.260Z,62.06
2018-05-24T10:27:46.992Z,64.01
2018-05-24T10:30:20.580Z,62.20
2018-05-24T10:32:54.315Z,63.46
2018-05-24T10:35:27.904Z,65.48
2018-05-24T10:38:01.666Z,63.32
2018-05-24T10:40:35.412Z,63.18
2018-05-24T10:43:09.158Z,62.66
2018-05-24T10:45:43.067Z,62.96
2018-05-24T10:48:16.722Z,61.20
2018-05-24T10:50:50.261Z,61.24
2018-05-24T10:53:23.961Z,59.86
2018-05-24T10:55:57.997Z,59.34
2018-05-24T10:58:31.532Z,55.23
2018-05-24T11:01:05.076Z,56.54
2018-05-24T11:03:38.795Z,59.09
2018-05-24T11:06:12.581Z,58.43
2018-05-24T11:08:46.361Z,61.31
2018-05-24T11:11:20.184Z,62.26
2018-05-24T11:13:53.732Z,62.63
2018-05-24T11:16:27.259Z,63.52
2018-05-24T11:19:00.840Z,63.72
2018-05-24T11:21:34.523Z,62.85
2018-05-24T11:24:08.290Z,61.45
2018-05-24T11:26:42.008Z,57.93
2018-05-24T11:29:15.612Z,58.56
2018-05-24T11:31:49.228Z,56.07
2018-05-24T11:34:22.705Z,56.25
2018-05-24T11:36:56.482Z,54.08
2018-05-24T11:39:30.224Z,54.95
2018-05-24T11:42:03.866Z,50.45
2018-05-24T11:44:37.435Z,49.33
2018-05-24T11:47:11.076Z,47.79
2018-05-24T11:49:44.841Z,48.22
2018-05-24T11:52:18.487Z,50.18
2018-05-24T11:54:51.968Z,51.16
2018-05-24T11:57:25.628Z,48.94
2018-05-24T11:59:59.295Z,49.24
2018-05-24T12:02:33.207Z,50.03
2018-05-24T12:05:06.896Z,47.93
2018-05-24T12:07:40.425Z,46.48
2018-05-24T12:10:14.146Z,46.57
2018-05-24T12:12:47.945Z,47.64
2018-05-24T12:15:21.546Z,47.32
2018-05-24T12:17:55.187Z,47.09
2018-05-24T12:20:28.772Z,46.44
2018-05-24T12:23:02.564Z,47.10
2018-05-24T12:25:36.185Z,46.82
2018-05-24T12:28:09.783Z,47.00
2018-05-24T12:30:43.537Z,47.11
2018-05-24T12:33:17.119Z,46.38
2018-05-24T12:35:50.700Z,45.83
2018-05-24T12:38:24.366Z,45.16
2018-05-24T12:40:57.942Z,46.92
2018-05-24T12:43:31.996Z,45.25
2018-05-24T12:46:05.691Z,47.03
2018-05-24T12:48:39.482Z,46.67
2018-05-24T12:51:13.100Z,46.51
2018-05-24T12:53:46.656Z,45.99
2018-05-24T12:56:20.408Z,44.65
2018-05-24T12:58:54.060Z,45.39
2018-05-24T13:01:27.663Z,45.70
2018-05-24T13:04:01.247Z,46.97
2018-05-24T13:06:35.004Z,46.56
2018-05-24T13:09:08.509Z,49.41
2018-05-24T13:11:42.336Z,50.17
2018-05-24T13:14:16.100Z,49.83
2018-05-24T13:16:49.744Z,52.53
2018-05-24T13:19:23.527Z,52.05
2018-05-24T13:21:57.170Z,53.59
2018-05-24T13:24:30.975Z,54.75
2018-05-24T13:27:04.768Z,55.10
2018-05-24T13:29:38.249Z,55.29
2018-05-24T13:32:12.020Z,55.50
2018-05-24T13:34:45.814Z,55.43
2018-05-24T13:37:19.480Z,55.64
2018-05-24T13:39:53.135Z,55.57
2018-05-24T13:42:26.716Z,54.69
2018-05-24T13:45:00.268Z,54.49
2018-05-24T13:47:33.920Z,54.55
2018-05-24T13:50:07.404Z,53.49
2018-05-24T13:52:41.149Z,53.63
2018-05-24T13:55:14.718Z,52.58
2018-05-24T13:57:48.290Z,54.07
2018-05-24T14:00:21.808Z,55.72
2018-05-24T14:02:55.334Z,56.71
2018-05-24T14:05:28.876Z,57.29
2018-05-24T14:08:02.533Z,60.89
2018-05-24T14:10:36.044Z,62.64
2018-05-24T14:13:09.855Z,60.11
2018-05-24T14:15:43.428Z,60.75
2018-05-24T14:18:17.044Z,61.13
2018-05-24T14:20:50.740Z,64.12
2018-05-24T14:23:24.299Z,62.09
2018-05-24T14:25:58.123Z,61.21
2018-05-24T14:28:31.656Z,60.65
2018-05-24T14:31:05.438Z,60.21
2018-05-24T14:33:39.068Z,61.60
2018-05-24T14:36:12.843Z,60.78
2018-05-24T14:38:46.642Z,62.92
2018-05-24T14:41:20.447Z,61.92
2018-05-24T14:43:53.976Z,60.57
2018-05-24T14:46:31.360Z,60.19
2018-05-24T14:49:05.007Z,59.63
2018-05-24T14:51:38.496Z,60.01
2018-05-24T14:54:12.046Z,59.98
2018-05-24T14:56:45.742Z,58.79
2018-05-24T14:59:19.288Z,58.24
2018-05-24T15:01:53.063Z,59.14
2018-05-24T15:04:26.731Z,60.22
2018-05-24T15:07:00.306Z,59.39
2018-05-24T15:09:33.903Z,57.80
2018-05-24T15:12:07.500Z,58.57
2018-05-24T15:14:41.064Z,57.36
2018-05-24T15:17:14.860Z,55.69
2018-05-24T15:19:48.468Z,56.84
2018-05-24T15:22:22.067Z,56.79
2018-05-24T15:24:55.728Z,57.15
2018-05-24T15:27:29.301Z,56.50
2018-05-24T15:30:02.939Z,57.85
2018-05-24T15:32:36.668Z,57.92
2018-05-24T15:35:10.191Z,58.81
2018-05-24T15:37:43.848Z,59.18
2018-05-24T15:40:17.612Z,60.12
2018-05-24T15:42:51.108Z,59.18
2018-05-24T15:45:24.777Z,58.26
2018-05-24T15:47:58.326Z,59.54
2018-05-24T15:50:31.918Z,60.37
2018-05-24T15:53:05.828Z,60.90
2018-05-24T15:55:39.953Z,59.23
2018-05-24T15:58:13.604Z,59.59
2018-05-24T16:00:47.135Z,58.35
2018-05-24T16:03:20.823Z,58.77
2018-05-24T16:05:54.590Z,58.71
2018-05-24T16:08:28.260Z,58.09
2018-05-24T16:11:01.912Z,58.88
2018-05-24T16:13:35.678Z,58.42
2018-05-24T16:16:09.379Z,57.83
2018-05-24T16:18:43.160Z,58.30
2018-05-24T16:21:16.880Z,57.61
2018-05-24T16:23:50.496Z,57.21
2018-05-24T16:26:24.151Z,57.50
2018-05-24T16:28:57.844Z,57.44
2018-05-24T16:31:31.328Z,57.62
2018-05-24T16:34:05.004Z,57.90
2018-05-24T16:36:38.551Z,58.56
2018-05-24T16:39:12.314Z,59.30
2018-05-24T16:41:46.089Z,59.23
2018-05-24T16:44:19.840Z,58.48
2018-05-24T16:46:53.488Z,58.40
2018-05-24T16:49:27.296Z,58.53
2018-05-24T16:52:00.772Z,59.38
2018-05-24T16:54:34.343Z,58.80
2018-05-24T16:57:08.001Z,58.86
2018-05-24T16:59:41.736Z,58.95
2018-05-24T17:02:15.600Z,58.68
2018-05-24T17:04:49.283Z,58.52
2018-05-24T17:07:22.895Z,58.34
2018-05-24T17:09:56.386Z,59.25
2018-05-24T17:12:30.051Z,59.36
2018-05-24T17:15:03.732Z,60.16
2018-05-24T17:17:37.381Z,60.25
2018-05-24T17:20:11.027Z,60.29
2018-05-24T17:22:44.747Z,61.65
2018-05-24T17:25:18.323Z,60.53
2018-05-24T17:27:52.040Z,61.67
2018-05-24T17:30:25.635Z,60.89
2018-05-24T17:32:59.565Z,61.11
2018-05-24T17:35:33.300Z,60.90
2018-05-24T17:38:06.854Z,61.22
2018-05-24T17:40:40.593Z,61.30
2018-05-24T17:43:14.399Z,61.36
2018-05-24T17:45:48.076Z,62.20
2018-05-24T17:48:21.555Z,61.55
2018-05-24T17:50:55.111Z,61.72
2018-05-24T17:53:28.776Z,62.39
2018-05-24T17:56:02.487Z,62.18
2018-05-24T17:58:36.224Z,62.09
2018-05-24T18:01:09.990Z,62.29
2018-05-24T18:03:43.503Z,62.85
2018-05-24T18:06:17.015Z,62.76
2018-05-24T18:08:50.697Z,62.17
2018-05-24T18:11:24.228Z,62.88
2018-05-24T18:13:57.801Z,62.66
2018-05-24T18:16:31.583Z,63.37
2018-05-24T18:19:05.268Z,63.20
2018-05-24T18:21:39.094Z,63.40
2018-05-24T18:24:12.764Z,63.72
2018-05-24T18:26:46.281Z,64.42
2018-05-24T18:29:19.821Z,63.97
2018-05-24T18:31:53.576Z,64.14
2018-05-24T18:34:27.084Z,64.27
2018-05-24T18:37:00.728Z,64.36
2018-05-24T18:39:34.248Z,64.62
2018-05-24T18:42:07.747Z,64.41
2018-05-24T18:44:41.324Z,65.40
2018-05-24T18:47:14.955Z,65.11
2018-05-24T18:49:48.761Z,65.26
2018-05-24T18:52:22.231Z,65.55
2018-05-24T18:54:55.785Z,65.51
2018-05-24T18:57:29.378Z,65.57
2018-05-24T19:00:03.024Z,65.76
2018-05-24T19:02:36.711Z,65.95
2018-05-24T19:05:10.460Z,66.17
2018-05-24T19:07:44.130Z,66.44
2018-05-24T19:10:17.714Z,66.54
2018-05-24T19:12:51.324Z,66.92
2018-05-24T19:15:25.172Z,66.70
2018-05-24T19:17:58.729Z,67.19
2018-05-24T19:20:32.511Z,67.43
2018-05-24T19:23:06.140Z,67.73
2018-05-24T19:25:39.926Z,67.68
2018-05-24T19:28:13.671Z,67.92
2018-05-24T19:30:47.400Z,67.92
2018-05-24T19:33:21.188Z,68.27
2018-05-24T19:35:54.961Z,68.38
2018-05-24T19:38:28.739Z,68.24
2018-05-24T19:41:02.427Z,68.80
2018-05-24T19:43:36.031Z,68.18
2018-05-24T19:46:09.837Z,68.61
2018-05-24T19:48:43.626Z,68.48
2018-05-24T19:51:17.179Z,68.54
2018-05-24T19:53:51.006Z,68.86
2018-05-24T19:56:24.588Z,68.60
2018-05-24T19:58:58.360Z,68.50
2018-05-24T20:01:32.036Z,68.66
2018-05-24T20:04:05.577Z,68.54
2018-05-24T20:06:39.372Z,68.71
2018-05-24T20:09:13.832Z,68.81
2018-05-24T20:11:47.603Z,68.99
2018-05-24T20:14:21.270Z,68.75
2018-05-24T20:16:54.815Z,69.33
2018-05-24T20:19:28.396Z,69.20
2018-05-24T20:22:01.904Z,69.26
2018-05-24T20:24:35.552Z,69.23
2018-05-24T20:27:09.149Z,69.68
2018-05-24T20:29:42.718Z,69.62
2018-05-24T20:32:16.315Z,69.56
2018-05-24T20:34:49.871Z,69.58
2018-05-24T20:37:23.564Z,69.49
2018-05-24T20:39:57.753Z,69.55
2018-05-24T20:42:31.290Z,69.67
2018-05-24T20:45:04.936Z,70.11
2018-05-24T20:47:38.465Z,70.19
2018-05-24T20:50:12.220Z,69.96
2018-05-24T20:52:45.743Z,70.57
2018-05-24T20:55:19.332Z,70.28
2018-05-24T20:57:53.143Z,70.35
2018-05-24T21:00:26.704Z,70.92
2018-05-24T21:03:00.310Z,70.91
2018-05-24T21:05:33.853Z,70.75
2018-05-24T21:08:07.487Z,70.62
2018-05-24T21:10:41.256Z,71.06
2018-05-24T21:13:14.944Z,71.37
2018-05-24T21:15:48.477Z,71.12
2018-05-24T21:18:22.305Z,70.97
2018-05-24T21:20:55.799Z,71.92
2018-05-24T21:23:29.495Z,71.76
2018-05-24T21:26:03.107Z,71.86
2018-05-24T21:28:36.668Z,72.04
2018-05-24T21:31:10.340Z,72.33
2018-05-24T21:33:43.924Z,72.40
2018-05-24T21:36:17.549Z,72.30
2018-05-24T21:38:51.174Z,72.85
2018-05-24T21:41:24.726Z,73.22
2018-05-24T21:43:58.459Z,72.71
2018-05-24T21:46:32.160Z,73.04
2018-05-24T21:49:05.812Z,73.04
2018-05-24T21:51:39.329Z,72.83
2018-05-24T21:54:13.036Z,73.07
2018-05-24T21:56:46.781Z,73.18
2018-05-24T21:59:20.340Z,73.38
2018-05-24T22:01:53.891Z,73.27
2018-05-24T22:04:27.428Z,73.62
2018-05-24T22:07:01.034Z,73.96
2018-05-24T22:09:40.587Z,74.23
2018-05-24T22:12:14.399Z,74.56
2018-05-24T22:14:48.024Z,74.50
2018-05-24T22:17:21.723Z,74.73
2018-05-24T22:19:55.332Z,74.52
2018-05-24T22:22:29.012Z,74.80
2018-05-24T22:25:02.652Z,75.07
2018-05-24T22:27:36.437Z,75.03
2018-05-24T22:30:10.101Z,74.96
2018-05-24T22:32:43.786Z,74.97
2018-05-24T22:35:17.416Z,75.46
2018-05-24T22:37:51.209Z,75.15
2018-05-24T22:40:25.112Z,74.87
2018-05-24T22:42:58.884Z,75.04
2018-05-24T22:45:32.435Z,75.46
2018-05-24T22:48:06.012Z,75.37
2018-05-24T22:50:39.602Z,75.65
2018-05-24T22:53:13.275Z,75.58
2018-05-24T22:55:46.786Z,75.83
2018-05-24T22:58:20.342Z,75.82
2018-05-24T23:00:53.891Z,76.11
2018-05-24T23:03:27.500Z,75.91
2018-05-24T23:06:01.257Z,76.26
2018-05-24T23:08:35.055Z,76.68
2018-05-24T23:11:08.687Z,77.15
2018-05-24T23:13:42.308Z,77.41
2018-05-24T23:16:16.006Z,77.52
2018-05-24T23:18:49.639Z,77.54
2018-05-24T23:21:23.179Z,77.34
2018-05-24T23:23:56.811Z,77.31
2018-05-24T23:26:30.522Z,77.53
2018-05-24T23:29:04.317Z,77.59
2018-05-24T23:31:38.070Z,77.60
2018-05-24T23:34:11.843Z,77.93
2018-05-24T23:36:45.480Z,78.11
2018-05-24T23:39:19.140Z,78.25
2018-05-24T23:41:52.809Z,78.60
2018-05-24T23:44:26.569Z,79.00
2018-05-24T23:47:00.273Z,79.25
2018-05-24T23:49:33.841Z,79.07
2018-05-24T23:52:07.448Z,79.32
2018-05-24T23:54:41.146Z,79.22
2018-05-24T23:57:14.774Z,79.45
2018-05-24T23:59:48.437Z,79.17
